Time;durP1;ratioP1;P1;durP2;ratioP2;P2;SDS_P1;SDS_P2;PMS_P1;PMS_P2;Temp;Humidity;BMP_temperature;BMP_pressure;BME280_temperature;BME280_humidity;BME280_pressure;Samples;Min_cycle;Max_cycle;Signal;HPM_P1;HPM_P2
2023/11/12 00:01:08;;;;;;;6.70;1.70;;;6.40;99.90;;;;;;5021904;28;21049;-71
2023/11/12 00:03:38;;;;;;;9.60;1.93;;;6.40;99.90;;;;;;5022036;28;20454;-70
2023/11/12 00:06:06;;;;;;;7.57;2.17;;;6.40;99.90;;;;;;5021445;28;21298;-70
2023/11/12 00:08:34;;;;;;;6.77;1.77;;;6.40;99.90;;;;;;5022141;28;20439;-72
2023/11/12 00:11:02;;;;;;;7.83;1.70;;;6.40;99.90;;;;;;5020265;28;20463;-69
2023/11/12 00:13:31;;;;;;;6.83;1.60;;;6.30;99.90;;;;;;5021919;28;20448;-70
2023/11/12 00:15:59;;;;;;;7.33;2.10;;;6.30;99.90;;;;;;5020034;28;21068;-71
2023/11/12 00:18:27;;;;;;;7.40;2.17;;;6.40;99.90;;;;;;5021450;28;20555;-71
2023/11/12 00:20:56;;;;;;;6.77;1.97;;;6.40;99.90;;;;;;5022283;28;20523;-71
2023/11/12 00:23:24;;;;;;;6.40;1.57;;;6.30;99.90;;;;;;5018825;28;20470;-69
2023/11/12 00:25:53;;;;;;;7.20;1.90;;;6.20;99.90;;;;;;5021610;28;21176;-71
2023/11/12 00:28:22;;;;;;;7.30;1.60;;;6.30;99.90;;;;;;5021235;28;20550;-71
2023/11/12 00:30:50;;;;;;;6.90;1.60;;;6.30;99.90;;;;;;5020034;28;20451;-69
2023/11/12 00:33:19;;;;;;;7.03;1.70;;;6.30;99.90;;;;;;5021633;28;20487;-69
2023/11/12 00:35:47;;;;;;;10.47;2.20;;;6.30;99.90;;;;;;5021747;28;20502;-70
2023/11/12 00:38:17;;;;;;;7.70;1.33;;;6.40;99.90;;;;;;5021833;28;20473;-70
2023/11/12 00:40:46;;;;;;;7.77;2.17;;;6.40;99.90;;;;;;5021298;28;20445;-70
2023/11/12 00:43:15;;;;;;;7.27;1.70;;;6.30;99.90;;;;;;5021246;28;20497;-70
2023/11/12 00:45:43;;;;;;;7.10;1.67;;;6.40;99.90;;;;;;5024353;28;20511;-71
2023/11/12 00:48:11;;;;;;;7.10;1.70;;;6.40;99.90;;;;;;5025461;28;20552;-70
2023/11/12 00:50:39;;;;;;;7.17;1.67;;;6.40;99.90;;;;;;5025184;28;20447;-71
2023/11/12 00:53:07;;;;;;;6.73;1.70;;;6.50;99.90;;;;;;5025446;28;20954;-70
2023/11/12 00:55:37;;;;;;;6.33;1.53;;;6.50;99.90;;;;;;5022348;28;20455;-71
2023/11/12 00:58:04;;;;;;;6.83;1.73;;;6.40;99.90;;;;;;5024520;28;20467;-71
2023/11/12 01:00:32;;;;;;;7.20;1.73;;;6.40;99.90;;;;;;5024028;28;20466;-71
2023/11/12 01:03:02;;;;;;;7.20;1.60;;;6.40;99.90;;;;;;5025630;28;20528;-70
2023/11/12 01:05:30;;;;;;;7.63;1.67;;;6.40;99.90;;;;;;5024069;28;21022;-70
2023/11/12 01:07:58;;;;;;;6.47;1.50;;;6.40;99.90;;;;;;5025345;28;20467;-72
2023/11/12 01:10:26;;;;;;;8.47;1.30;;;6.40;99.90;;;;;;5024634;28;20517;-71
2023/11/12 01:12:56;;;;;;;7.40;1.90;;;6.50;99.90;;;;;;5026424;28;20989;-69
2023/11/12 01:15:26;;;;;;;6.80;1.60;;;6.50;99.90;;;;;;5024298;28;20544;-70
2023/11/12 01:17:54;;;;;;;7.00;2.00;;;6.40;99.90;;;;;;5025606;28;20467;-67
2023/11/12 01:20:22;;;;;;;6.47;1.43;;;6.40;99.90;;;;;;5023180;28;20642;-69
2023/11/12 01:22:50;;;;;;;9.13;1.60;;;6.40;99.90;;;;;;5029423;28;20448;-71
2023/11/12 01:25:18;;;;;;;7.23;1.73;;;6.40;99.90;;;;;;5030000;28;20494;-68
2023/11/12 01:27:46;;;;;;;6.50;1.30;;;6.40;99.90;;;;;;5030983;28;20830;-69
2023/11/12 01:30:17;;;;;;;7.97;1.60;;;6.40;99.90;;;;;;5030516;28;20521;-68
2023/11/12 01:32:45;;;;;;;7.73;1.50;;;6.40;99.90;;;;;;5028996;28;20455;-70
2023/11/12 01:35:14;;;;;;;7.53;1.70;;;6.50;99.90;;;;;;5029164;28;20973;-69
2023/11/12 01:37:44;;;;;;;7.10;1.70;;;6.50;99.90;;;;;;5030237;28;20474;-68
2023/11/12 01:40:14;;;;;;;6.87;1.30;;;6.50;99.90;;;;;;5030393;28;20867;-68
2023/11/12 01:42:42;;;;;;;6.40;1.20;;;6.50;99.90;;;;;;5025194;28;20448;-67
2023/11/12 01:45:10;;;;;;;6.70;1.70;;;6.50;99.90;;;;;;5010105;28;20488;-68
2023/11/12 01:47:44;;;;;;;6.77;1.37;;;6.40;99.90;;;;;;5010479;28;20466;-68
2023/11/12 01:50:13;;;;;;;8.27;1.70;;;6.50;99.90;;;;;;5026871;28;20465;-69
2023/11/12 01:52:43;;;;;;;6.67;1.30;;;6.40;99.90;;;;;;5029774;28;20549;-68
2023/11/12 01:55:13;;;;;;;7.07;1.63;;;6.30;99.90;;;;;;5029291;28;20532;-68
2023/11/12 01:57:43;;;;;;;7.10;1.50;;;6.20;99.90;;;;;;5030288;28;21033;-68
2023/11/12 02:00:15;;;;;;;7.60;1.63;;;6.20;99.90;;;;;;5029911;28;20489;-71
2023/11/12 02:02:45;;;;;;;8.73;1.50;;;6.20;99.90;;;;;;5029876;28;20458;-69
2023/11/12 02:05:14;;;;;;;7.13;1.40;;;6.30;99.90;;;;;;5027160;28;20570;-68
2023/11/12 02:07:43;;;;;;;9.17;1.87;;;6.20;99.90;;;;;;5029916;28;20496;-68
2023/11/12 02:10:13;;;;;;;7.60;1.53;;;6.30;99.90;;;;;;5029827;28;20538;-69
2023/11/12 02:12:44;;;;;;;7.00;1.40;;;6.30;99.90;;;;;;5029986;28;20455;-70
2023/11/12 02:15:14;;;;;;;7.83;1.47;;;6.40;99.90;;;;;;5028552;28;20443;-69
2023/11/12 02:17:45;;;;;;;6.27;1.20;;;6.40;99.90;;;;;;5023983;28;20524;-70
2023/11/12 02:20:15;;;;;;;6.50;1.50;;;6.40;99.90;;;;;;5029585;28;20539;-70
2023/11/12 02:22:43;;;;;;;6.53;1.23;;;6.40;99.90;;;;;;5029604;28;20962;-67
2023/11/12 02:25:13;;;;;;;6.80;1.50;;;6.50;99.90;;;;;;5031470;28;20562;-71
2023/11/12 02:27:43;;;;;;;6.70;1.20;;;6.50;99.90;;;;;;5015428;28;20482;-69
2023/11/12 02:30:12;;;;;;;7.30;1.30;;;6.60;99.90;;;;;;5029529;28;20456;-69
2023/11/12 02:32:41;;;;;;;6.37;1.40;;;6.60;99.90;;;;;;5029401;28;21080;-71
2023/11/12 02:35:09;;;;;;;6.60;1.30;;;6.60;99.90;;;;;;5028954;28;20478;-69
2023/11/12 02:37:37;;;;;;;9.53;1.93;;;6.60;99.90;;;;;;5029477;28;20523;-68
2023/11/12 02:40:07;;;;;;;6.40;1.30;;;6.50;99.90;;;;;;5029213;28;20515;-70
2023/11/12 02:42:37;;;;;;;6.47;1.10;;;6.60;99.90;;;;;;5023384;28;20520;-70
2023/11/12 02:45:06;;;;;;;6.53;1.27;;;6.60;99.90;;;;;;5028776;28;20968;-71
2023/11/12 02:47:35;;;;;;;6.97;1.53;;;6.60;99.90;;;;;;5029141;28;20833;-68
2023/11/12 02:50:25;;;;;;;6.80;1.20;;;6.60;99.90;;;;;;5028788;28;20456;-68
2023/11/12 02:52:53;;;;;;;7.40;1.47;;;6.60;99.90;;;;;;5029094;28;20452;-69
2023/11/12 02:55:21;;;;;;;6.80;1.47;;;6.60;99.90;;;;;;5021365;28;20563;-69
2023/11/12 02:57:51;;;;;;;6.40;1.30;;;6.60;99.90;;;;;;5028973;28;20574;-71
2023/11/12 03:00:19;;;;;;;6.77;1.40;;;6.60;99.90;;;;;;5028660;28;20476;-68
2023/11/12 03:02:48;;;;;;;6.67;1.10;;;6.50;99.90;;;;;;5027635;28;20925;-68
2023/11/12 03:05:19;;;;;;;7.82;1.40;;;6.50;99.90;;;;;;5027151;28;20888;-72
2023/11/12 03:07:47;;;;;;;7.90;1.10;;;6.40;99.90;;;;;;5027945;28;20230;-69
2023/11/12 03:10:15;;;;;;;6.77;1.27;;;6.30;99.90;;;;;;5028071;28;20526;-69
2023/11/12 03:12:44;;;;;;;6.30;1.03;;;6.10;99.90;;;;;;5028815;28;20441;-67
2023/11/12 03:15:13;;;;;;;7.00;1.40;;;5.90;99.90;;;;;;5027959;28;20538;-70
2023/11/12 03:17:41;;;;;;;6.20;1.20;;;5.70;99.90;;;;;;5028521;28;20551;-69
2023/11/12 03:20:10;;;;;;;7.40;1.30;;;5.40;99.90;;;;;;5028650;28;20453;-68
2023/11/12 03:22:38;;;;;;;6.17;0.97;;;5.10;99.90;;;;;;5028803;28;20490;-70
2023/11/12 03:25:08;;;;;;;7.30;0.97;;;4.80;99.90;;;;;;5028226;28;20463;-71
2023/11/12 03:27:36;;;;;;;6.80;1.00;;;4.60;99.90;;;;;;5027493;28;20607;-70
2023/11/12 03:30:05;;;;;;;6.20;1.10;;;4.40;99.90;;;;;;5028287;28;20548;-69
2023/11/12 03:32:34;;;;;;;7.90;1.50;;;4.20;99.90;;;;;;5028179;28;20539;-69
2023/11/12 03:35:03;;;;;;;6.77;1.60;;;4.10;99.90;;;;;;5028313;28;20505;-71
2023/11/12 03:37:31;;;;;;;6.57;1.20;;;4.00;99.90;;;;;;5028229;28;20499;-70
2023/11/12 03:39:58;;;;;;;7.30;1.17;;;4.10;99.90;;;;;;5028520;28;20452;-71
2023/11/12 03:42:26;;;;;;;9.60;1.30;;;4.00;99.90;;;;;;5028161;28;20467;-72
2023/11/12 03:44:56;;;;;;;6.40;1.33;;;4.10;99.90;;;;;;5026539;28;20527;-72
2023/11/12 03:47:25;;;;;;;7.73;1.50;;;3.90;99.90;;;;;;5028040;28;21405;-69
2023/11/12 03:49:54;;;;;;;7.90;1.27;;;3.90;99.90;;;;;;5028358;28;20521;-70
2023/11/12 03:52:22;;;;;;;6.57;1.33;;;4.00;99.90;;;;;;5027807;28;20495;-69
2023/11/12 03:54:50;;;;;;;6.30;1.30;;;3.90;99.90;;;;;;5027695;28;20536;-68
2023/11/12 03:57:18;;;;;;;6.37;1.23;;;3.80;99.90;;;;;;5028115;28;20472;-68
2023/11/12 03:59:51;;;;;;;6.40;1.20;;;3.90;99.90;;;;;;5026761;28;20449;-69
2023/11/12 04:02:21;;;;;;;6.77;1.63;;;3.80;99.90;;;;;;5028466;28;20855;-72
2023/11/12 04:04:49;;;;;;;6.87;1.37;;;3.80;99.90;;;;;;5027697;28;20461;-70
2023/11/12 04:07:18;;;;;;;6.60;1.50;;;3.70;99.90;;;;;;5027983;28;20512;-70
2023/11/12 04:09:47;;;;;;;6.90;1.50;;;3.70;99.90;;;;;;5028401;28;20447;-69
2023/11/12 04:12:14;;;;;;;7.20;1.30;;;3.80;99.90;;;;;;5028014;28;20456;-70
2023/11/12 04:14:43;;;;;;;7.77;1.40;;;3.80;99.90;;;;;;5027760;28;20445;-68
2023/11/12 04:17:10;;;;;;;6.47;1.40;;;3.80;99.90;;;;;;5023086;28;20473;-68
2023/11/12 04:19:39;;;;;;;7.07;1.50;;;3.80;99.90;;;;;;5031099;28;20543;-69
2023/11/12 04:22:07;;;;;;;7.90;1.60;;;3.70;99.90;;;;;;5031598;28;20460;-69
2023/11/12 04:24:36;;;;;;;8.23;1.37;;;3.50;99.90;;;;;;5031652;28;20452;-70
2023/11/12 04:27:05;;;;;;;7.57;1.60;;;3.50;99.90;;;;;;5031457;28;20496;-69
2023/11/12 04:29:32;;;;;;;6.80;1.60;;;3.40;99.90;;;;;;5031865;28;20878;-66
2023/11/12 04:32:01;;;;;;;7.63;1.60;;;3.50;99.90;;;;;;5030758;28;20543;-69
2023/11/12 04:34:28;;;;;;;7.53;1.73;;;3.60;99.90;;;;;;5030889;28;20483;-69
2023/11/12 04:36:56;;;;;;;6.80;1.50;;;3.60;99.90;;;;;;5031561;28;20492;-69
2023/11/12 04:39:24;;;;;;;7.07;1.43;;;3.50;99.90;;;;;;5031880;28;20453;-69
2023/11/12 04:41:54;;;;;;;7.53;1.83;;;3.50;99.90;;;;;;5031760;28;20454;-71
2023/11/12 04:44:22;;;;;;;6.60;1.37;;;3.40;99.90;;;;;;5031233;28;20444;-68
2023/11/12 04:46:49;;;;;;;8.03;1.83;;;3.30;99.90;;;;;;5031289;28;20492;-70
2023/11/12 04:49:18;;;;;;;9.03;2.30;;;3.30;99.90;;;;;;5023948;28;20462;-71
2023/11/12 04:51:46;;;;;;;7.90;1.80;;;3.50;99.90;;;;;;5031228;28;21014;-71
2023/11/12 04:54:14;;;;;;;11.17;1.77;;;3.40;99.90;;;;;;5031048;28;20467;-71
2023/11/12 04:56:46;;;;;;;7.80;1.60;;;3.40;99.90;;;;;;5031262;28;20867;-72
2023/11/12 04:59:16;;;;;;;6.53;1.63;;;3.40;99.90;;;;;;5031149;28;21103;-68
2023/11/12 05:01:43;;;;;;;9.03;1.90;;;3.50;99.90;;;;;;5030955;28;20460;-68
2023/11/12 05:04:11;;;;;;;7.47;1.80;;;3.50;99.90;;;;;;5030863;28;20803;-69
2023/11/12 05:06:40;;;;;;;7.23;2.00;;;3.40;99.90;;;;;;5029011;28;20488;-70
2023/11/12 05:09:09;;;;;;;7.47;1.77;;;3.40;99.90;;;;;;5031062;28;20477;-68
2023/11/12 05:11:38;;;;;;;6.40;1.50;;;3.50;99.90;;;;;;5031072;28;20452;-69
2023/11/12 05:14:07;;;;;;;9.33;2.20;;;3.50;99.90;;;;;;5030291;28;20518;-70
2023/11/12 05:16:36;;;;;;;7.60;1.63;;;3.60;99.90;;;;;;5030501;28;20469;-69
2023/11/12 05:19:06;;;;;;;6.60;1.57;;;3.50;99.90;;;;;;5030761;28;20456;-72
2023/11/12 05:21:34;;;;;;;8.70;1.80;;;3.40;99.90;;;;;;5029316;28;20893;-69
2023/11/12 05:24:04;;;;;;;8.03;2.30;;;3.50;99.90;;;;;;5030510;28;20460;-69
2023/11/12 05:26:32;;;;;;;7.07;1.50;;;3.50;99.90;;;;;;5029995;28;20561;-69
2023/11/12 05:29:00;;;;;;;6.90;1.70;;;3.50;99.90;;;;;;5030424;28;20460;-70
2023/11/12 05:31:28;;;;;;;8.87;2.20;;;3.50;99.90;;;;;;5029476;28;20542;-69
2023/11/12 05:33:57;;;;;;;8.07;1.80;;;3.60;99.90;;;;;;5030387;28;20499;-70
2023/11/12 05:36:25;;;;;;;7.20;1.73;;;3.50;99.90;;;;;;5030158;28;20587;-68
2023/11/12 05:38:54;;;;;;;8.57;3.07;;;3.30;99.90;;;;;;5028851;28;20484;-69
2023/11/12 05:41:22;;;;;;;8.57;2.97;;;3.30;99.90;;;;;;5023516;28;21070;-69
2023/11/12 05:43:50;;;;;;;10.17;3.93;;;3.40;99.90;;;;;;5030110;28;20451;-70
2023/11/12 05:46:18;;;;;;;9.40;4.23;;;3.40;99.90;;;;;;5029629;28;20487;-70
2023/11/12 05:48:46;;;;;;;10.10;4.50;;;3.40;99.90;;;;;;5030179;28;21242;-71
2023/11/12 05:51:15;;;;;;;9.60;3.93;;;3.40;99.90;;;;;;5030504;28;20472;-69
2023/11/12 05:53:43;;;;;;;10.80;4.70;;;3.50;99.90;;;;;;5029785;28;20510;-69
2023/11/12 05:56:11;;;;;;;12.10;5.17;;;3.60;99.90;;;;;;5021849;28;20607;-69
2023/11/12 05:58:39;;;;;;;10.50;4.40;;;3.70;99.90;;;;;;5031230;28;21008;-69
2023/11/12 06:01:07;;;;;;;10.30;4.80;;;3.70;99.90;;;;;;5010447;28;20524;-70
2023/11/12 06:03:35;;;;;;;10.47;5.50;;;3.60;99.90;;;;;;5010066;28;20452;-69
2023/11/12 06:06:04;;;;;;;11.20;4.70;;;3.60;99.90;;;;;;5010230;28;20568;-71
2023/11/12 06:08:33;;;;;;;10.00;5.30;;;3.60;99.90;;;;;;5009576;28;20489;-70
2023/11/12 06:11:01;;;;;;;9.23;4.60;;;3.60;99.90;;;;;;5013497;28;20448;-70
2023/11/12 06:13:29;;;;;;;9.63;4.33;;;3.50;99.90;;;;;;5029496;28;20459;-69
2023/11/12 06:15:57;;;;;;;11.43;4.77;;;3.60;99.90;;;;;;5029748;28;20552;-69
2023/11/12 06:18:26;;;;;;;9.60;4.23;;;3.60;99.90;;;;;;5029601;28;20480;-69
2023/11/12 06:20:54;;;;;;;9.67;4.10;;;3.50;99.90;;;;;;5028509;28;20441;-69
2023/11/12 06:23:22;;;;;;;11.63;5.03;;;3.50;99.90;;;;;;5029567;28;20449;-69
2023/11/12 06:25:51;;;;;;;8.90;3.70;;;3.60;99.90;;;;;;5029453;28;20451;-71
2023/11/12 06:28:22;;;;;;;9.30;4.13;;;3.70;99.90;;;;;;5027608;28;20498;-69
2023/11/12 06:30:51;;;;;;;11.70;4.57;;;3.60;99.90;;;;;;5029555;28;20451;-71
2023/11/12 06:33:19;;;;;;;13.03;4.50;;;3.70;99.90;;;;;;5029120;28;20446;-68
2023/11/12 06:35:47;;;;;;;10.43;4.03;;;3.70;99.90;;;;;;5029250;28;20448;-69
2023/11/12 06:38:15;;;;;;;10.57;4.03;;;3.70;99.90;;;;;;5029457;28;20471;-69
2023/11/12 06:40:43;;;;;;;9.00;4.43;;;3.60;99.90;;;;;;5029594;28;20449;-69
2023/11/12 06:43:12;;;;;;;10.77;5.27;;;3.60;99.90;;;;;;5028575;28;20500;-69
2023/11/12 06:45:40;;;;;;;9.70;4.50;;;3.60;99.90;;;;;;5029001;28;20453;-68
2023/11/12 06:48:08;;;;;;;10.80;4.90;;;3.60;99.90;;;;;;5029071;28;20554;-69
2023/11/12 06:50:36;;;;;;;10.30;4.27;;;3.80;99.90;;;;;;5029516;28;20499;-71
2023/11/12 06:53:04;;;;;;;10.37;4.53;;;3.80;99.90;;;;;;5029265;28;20536;-71
2023/11/12 06:55:33;;;;;;;9.20;4.43;;;4.00;99.90;;;;;;5024187;28;20449;-71
2023/11/12 06:58:01;;;;;;;10.10;4.10;;;4.00;99.90;;;;;;5009340;28;20600;-70
2023/11/12 07:00:33;;;;;;;9.47;4.30;;;4.00;99.90;;;;;;5020110;28;20462;-68
2023/11/12 07:03:01;;;;;;;10.83;5.20;;;3.90;99.90;;;;;;5029152;28;20501;-71
2023/11/12 07:05:30;;;;;;;9.97;3.53;;;3.90;99.90;;;;;;5028593;28;20532;-69
2023/11/12 07:07:58;;;;;;;9.10;3.80;;;4.00;99.90;;;;;;5029079;28;20556;-68
2023/11/12 07:10:26;;;;;;;10.70;4.10;;;4.00;99.90;;;;;;5028926;28;20507;-68
2023/11/12 07:12:54;;;;;;;10.60;4.10;;;4.10;99.90;;;;;;5028636;28;20541;-68
2023/11/12 07:15:22;;;;;;;8.40;3.73;;;4.10;99.90;;;;;;5028203;28;20531;-68
2023/11/12 07:17:52;;;;;;;9.70;3.87;;;4.10;99.90;;;;;;5022748;28;20995;-69
2023/11/12 07:20:20;;;;;;;10.00;4.60;;;4.10;99.90;;;;;;5028736;28;20445;-69
2023/11/12 07:22:49;;;;;;;9.53;4.10;;;4.10;99.90;;;;;;5028605;28;20453;-69
2023/11/12 07:25:17;;;;;;;9.80;4.07;;;4.20;99.90;;;;;;5028203;28;20547;-72
2023/11/12 07:27:45;;;;;;;18.53;5.60;;;4.30;99.90;;;;;;5028318;28;20574;-72
2023/11/12 07:30:13;;;;;;;9.23;4.00;;;4.20;99.90;;;;;;5028536;28;20445;-71
2023/11/12 07:32:41;;;;;;;9.00;4.07;;;4.30;99.90;;;;;;5026325;28;20478;-69
2023/11/12 07:35:13;;;;;;;10.60;5.00;;;4.40;99.90;;;;;;5028455;28;20450;-70
2023/11/12 07:37:41;;;;;;;10.60;4.60;;;4.50;99.90;;;;;;5028438;28;20461;-70
2023/11/12 07:40:11;;;;;;;9.93;4.20;;;4.50;99.90;;;;;;5028377;28;20440;-69
2023/11/12 07:42:40;;;;;;;10.50;4.30;;;4.60;99.90;;;;;;5028483;28;20906;-72
2023/11/12 07:45:09;;;;;;;11.90;4.67;;;4.70;99.90;;;;;;5028164;28;20443;-71
2023/11/12 07:47:42;;;;;;;10.33;4.40;;;4.80;99.90;;;;;;4994959;28;20470;-68
2023/11/12 07:50:12;;;;;;;11.57;4.13;;;4.90;99.90;;;;;;5020951;28;20454;-71
2023/11/12 07:52:41;;;;;;;8.93;3.43;;;5.00;99.90;;;;;;5028246;28;20944;-68
2023/11/12 07:55:09;;;;;;;8.63;3.27;;;5.30;99.90;;;;;;5028697;28;20539;-69
2023/11/12 07:57:37;;;;;;;10.00;3.30;;;5.40;99.90;;;;;;5021326;28;20474;-69
2023/11/12 08:00:07;;;;;;;11.00;4.13;;;5.40;99.90;;;;;;5029402;28;20466;-69
2023/11/12 08:02:35;;;;;;;10.47;3.20;;;5.40;99.90;;;;;;5028669;28;20454;-69
2023/11/12 08:05:07;;;;;;;9.73;2.97;;;5.40;99.90;;;;;;5021184;28;20910;-70
2023/11/12 08:07:37;;;;;;;9.00;3.03;;;5.40;99.90;;;;;;5027988;28;20527;-69
2023/11/12 08:10:08;;;;;;;7.53;2.87;;;5.40;99.90;;;;;;5028501;28;20499;-67
2023/11/12 08:12:36;;;;;;;7.80;2.83;;;5.30;99.90;;;;;;5027955;28;20443;-71
2023/11/12 08:15:05;;;;;;;8.30;3.03;;;5.30;99.90;;;;;;5027698;28;20516;-69
2023/11/12 08:17:33;;;;;;;7.83;2.30;;;5.30;99.90;;;;;;5027638;28;20985;-66
2023/11/12 08:20:01;;;;;;;8.53;3.30;;;5.30;99.90;;;;;;5028219;28;20443;-69
2023/11/12 08:22:29;;;;;;;8.70;3.47;;;5.50;99.90;;;;;;5020320;28;20546;-68
2023/11/12 08:24:59;;;;;;;8.60;2.70;;;5.70;99.90;;;;;;5027588;28;20502;-69
2023/11/12 08:27:27;;;;;;;8.00;2.63;;;5.80;99.90;;;;;;5027894;28;20883;-70
2023/11/12 08:29:55;;;;;;;8.40;2.47;;;6.10;99.90;;;;;;5027648;28;21052;-72
2023/11/12 08:32:23;;;;;;;7.67;2.67;;;6.20;99.90;;;;;;5027485;28;20447;-70
2023/11/12 08:34:51;;;;;;;8.67;3.37;;;6.40;99.90;;;;;;5027776;28;20874;-72
2023/11/12 08:37:19;;;;;;;9.97;3.40;;;6.40;99.90;;;;;;5019226;28;20528;-69
2023/11/12 08:39:47;;;;;;;7.67;2.70;;;6.50;99.90;;;;;;5027800;28;20543;-70
2023/11/12 08:42:16;;;;;;;8.00;2.90;;;6.60;99.90;;;;;;5020416;28;20460;-71
2023/11/12 08:44:44;;;;;;;8.50;3.00;;;6.70;99.90;;;;;;5027434;28;20441;-71
2023/11/12 08:47:12;;;;;;;7.87;3.03;;;6.90;99.90;;;;;;5027453;28;20497;-69
2023/11/12 08:49:40;;;;;;;8.87;3.03;;;7.10;99.90;;;;;;5027856;28;20851;-69
2023/11/12 08:52:11;;;;;;;8.10;2.60;;;7.20;99.90;;;;;;5027958;28;20452;-69
2023/11/12 08:54:39;;;;;;;8.00;2.63;;;7.20;99.90;;;;;;5026915;28;20803;-70
2023/11/12 08:57:09;;;;;;;8.47;3.03;;;7.30;99.90;;;;;;5027571;28;20473;-71
2023/11/12 08:59:39;;;;;;;9.57;3.20;;;7.40;99.90;;;;;;5026984;28;20532;-71
2023/11/12 09:02:07;;;;;;;7.70;3.13;;;7.40;99.90;;;;;;5027643;28;20434;-71
2023/11/12 09:04:35;;;;;;;7.53;2.83;;;7.50;99.90;;;;;;5018433;28;20533;-73
2023/11/12 09:07:03;;;;;;;7.70;3.00;;;7.70;99.90;;;;;;5010889;28;20486;-71
2023/11/12 09:09:32;;;;;;;7.77;2.17;;;7.90;99.90;;;;;;5010916;28;20531;-71
2023/11/12 09:12:00;;;;;;;8.63;3.07;;;8.00;99.90;;;;;;5028441;28;21009;-68
2023/11/12 09:14:28;;;;;;;8.00;2.40;;;8.10;99.90;;;;;;5030703;28;20669;-70
2023/11/12 09:16:58;;;;;;;8.57;2.57;;;8.00;99.90;;;;;;5030627;28;20474;-70
2023/11/12 09:19:26;;;;;;;8.20;2.43;;;8.00;99.90;;;;;;5030939;28;20481;-70
2023/11/12 09:21:54;;;;;;;9.13;2.83;;;8.00;99.90;;;;;;5019161;28;20898;-70
2023/11/12 09:24:22;;;;;;;7.37;2.40;;;8.00;99.90;;;;;;5022482;28;20918;-70
2023/11/12 09:26:51;;;;;;;7.60;2.20;;;8.00;99.90;;;;;;5022653;28;20474;-68
2023/11/12 09:29:19;;;;;;;8.13;2.60;;;7.90;99.90;;;;;;5026838;28;21003;-68
2023/11/12 09:31:48;;;;;;;8.50;3.23;;;7.80;99.90;;;;;;5030457;28;20616;-67
2023/11/12 09:34:17;;;;;;;8.23;1.90;;;7.80;99.90;;;;;;5029724;28;20477;-67
2023/11/12 09:36:45;;;;;;;6.73;2.03;;;7.70;99.90;;;;;;5030092;28;20501;-69
2023/11/12 09:39:13;;;;;;;8.00;2.70;;;7.70;99.90;;;;;;5030383;28;20500;-68
2023/11/12 09:41:47;;;;;;;8.07;2.37;;;7.70;99.90;;;;;;5022790;28;21172;-69
2023/11/12 09:44:17;;;;;;;8.17;2.50;;;7.80;99.90;;;;;;5027267;28;20523;-71
2023/11/12 09:46:54;;;;;;;8.10;2.30;;;7.80;99.90;;;;;;5029962;28;20469;-69
2023/11/12 09:49:24;;;;;;;8.37;2.13;;;8.00;99.90;;;;;;5034454;28;20481;-71
2023/11/12 09:51:52;;;;;;;7.00;2.10;;;8.00;99.90;;;;;;5043553;28;20465;-70
2023/11/12 09:54:20;;;;;;;10.70;2.40;;;8.10;99.90;;;;;;5026812;28;20505;-72
2023/11/12 09:56:48;;;;;;;7.83;1.97;;;8.20;99.90;;;;;;5028816;28;20468;-70
2023/11/12 09:59:30;;;;;;;8.10;2.10;;;8.30;99.90;;;;;;5027131;28;20503;-69
2023/11/12 10:01:58;;;;;;;6.80;1.83;;;8.50;99.90;;;;;;5032320;28;20441;-69
2023/11/12 10:04:28;;;;;;;7.03;2.20;;;8.60;99.90;;;;;;5039763;28;20455;-69
2023/11/12 10:06:57;;;;;;;8.33;2.07;;;8.60;99.90;;;;;;5018786;28;20540;-74
2023/11/12 10:09:28;;;;;;;7.27;1.90;;;8.60;99.90;;;;;;5014650;28;20565;-70
2023/11/12 10:12:03;;;;;;;7.40;2.00;;;8.70;99.90;;;;;;5028730;28;20497;-70
2023/11/12 10:14:31;;;;;;;8.50;2.10;;;8.70;99.90;;;;;;5025010;28;20438;-76
2023/11/12 10:17:06;;;;;;;7.27;2.10;;;8.80;99.90;;;;;;5022197;28;20510;-73
2023/11/12 10:19:37;;;;;;;7.87;1.70;;;8.90;99.90;;;;;;5031843;28;20433;-71
2023/11/12 10:22:07;;;;;;;7.43;1.67;;;8.90;99.90;;;;;;5034324;28;20462;-71
2023/11/12 10:24:43;;;;;;;7.17;2.00;;;8.80;99.90;;;;;;5016029;28;20458;-72
2023/11/12 10:27:14;;;;;;;6.57;1.70;;;8.90;99.90;;;;;;5017423;28;20461;-71
2023/11/12 10:29:43;;;;;;;11.63;2.70;;;8.90;99.90;;;;;;5017343;28;20489;-71
2023/11/12 10:32:25;;;;;;;8.80;2.43;;;8.80;99.90;;;;;;5019291;28;20790;-71
2023/11/12 10:34:55;;;;;;;9.70;2.17;;;9.10;99.90;;;;;;5017225;28;20456;-71
2023/11/12 10:37:23;;;;;;;8.40;2.53;;;9.00;99.90;;;;;;5024683;28;21249;-73
2023/11/12 10:39:51;;;;;;;7.80;2.27;;;8.90;99.90;;;;;;5018183;28;20451;-70
2023/11/12 10:42:24;;;;;;;7.40;2.23;;;8.80;99.90;;;;;;5020842;28;20448;-74
2023/11/12 10:44:55;;;;;;;7.23;2.23;;;8.80;99.90;;;;;;5030181;28;20432;-72
2023/11/12 10:47:26;;;;;;;12.53;2.30;;;8.90;99.90;;;;;;5028344;28;20462;-71
2023/11/12 10:49:56;;;;;;;7.50;2.67;;;9.00;99.90;;;;;;5027367;28;21018;-70
2023/11/12 10:52:24;;;;;;;7.00;2.30;;;9.20;99.90;;;;;;5025799;28;20458;-71
2023/11/12 10:54:52;;;;;;;7.60;2.40;;;9.30;99.90;;;;;;5028518;28;20454;-71
2023/11/12 10:57:23;;;;;;;7.07;2.57;;;9.20;99.90;;;;;;5028435;28;20475;-71
2023/11/12 10:59:52;;;;;;;7.20;2.33;;;9.20;99.90;;;;;;5018467;28;20490;-72
2023/11/12 11:02:22;;;;;;;7.80;2.97;;;9.30;99.90;;;;;;5016306;28;20455;-71
2023/11/12 11:04:50;;;;;;;9.00;3.00;;;9.20;99.90;;;;;;5018139;28;20454;-71
2023/11/12 11:07:19;;;;;;;8.50;2.67;;;9.30;99.90;;;;;;5017738;28;20464;-71
2023/11/12 11:09:48;;;;;;;7.37;2.10;;;9.40;99.90;;;;;;5018389;28;20578;-73
2023/11/12 11:12:17;;;;;;;8.10;2.97;;;9.40;99.90;;;;;;5016486;28;20444;-74
2023/11/12 11:14:46;;;;;;;7.90;2.93;;;9.60;99.90;;;;;;5017940;28;20472;-72
2023/11/12 11:17:36;;;;;;;8.83;2.90;;;9.80;99.90;;;;;;5018401;28;21074;-71
2023/11/12 11:20:05;;;;;;;11.43;3.67;;;9.80;99.90;;;;;;5018350;28;20452;-71
2023/11/12 11:22:34;;;;;;;9.40;2.37;;;10.00;99.90;;;;;;5019517;28;20495;-70
2023/11/12 11:25:24;;;;;;;8.37;3.00;;;10.10;99.90;;;;;;5018750;28;20441;-70
2023/11/12 11:28:20;;;;;;;8.83;2.47;;;10.10;99.90;;;;;;5017920;28;20502;-71
2023/11/12 11:31:09;;;;;;;7.23;2.03;;;10.10;99.90;;;;;;5017574;28;20922;-71
2023/11/12 11:33:47;;;;;;;7.33;2.17;;;9.90;99.90;;;;;;5021411;28;20480;-70
2023/11/12 11:36:16;;;;;;;9.83;2.77;;;9.90;99.90;;;;;;5023358;28;20441;-71
2023/11/12 11:39:12;;;;;;;10.70;3.00;;;9.80;99.90;;;;;;5026368;28;20441;-70
2023/11/12 11:42:20;;;;;;;7.73;2.77;;;9.80;99.90;;;;;;5015239;28;20461;-69
2023/11/12 11:44:49;;;;;;;10.80;2.33;;;9.80;99.90;;;;;;5013445;28;21258;-68
2023/11/12 11:47:19;;;;;;;9.43;2.53;;;9.80;99.90;;;;;;5023982;28;20469;-71
2023/11/12 11:49:48;;;;;;;7.63;2.50;;;9.90;99.90;;;;;;5024246;28;20451;-70
2023/11/12 11:52:21;;;;;;;7.47;2.60;;;9.90;99.90;;;;;;5025959;28;20456;-70
2023/11/12 11:55:02;;;;;;;7.90;2.80;;;9.80;99.90;;;;;;5018841;28;20963;-71
2023/11/12 11:57:32;;;;;;;8.10;2.80;;;9.90;99.90;;;;;;5024471;28;20487;-71
2023/11/12 12:00:00;;;;;;;7.77;2.63;;;9.90;99.90;;;;;;5026483;28;20451;-71
2023/11/12 12:02:29;;;;;;;8.00;3.00;;;9.80;99.90;;;;;;5027684;28;20466;-71
2023/11/12 12:04:58;;;;;;;8.20;3.20;;;9.80;99.90;;;;;;5014833;28;20441;-71
2023/11/12 12:07:29;;;;;;;7.90;2.50;;;9.80;99.90;;;;;;5019089;28;21054;-70
2023/11/12 12:09:59;;;;;;;8.10;3.00;;;9.80;99.90;;;;;;5020998;28;20538;-73
2023/11/12 12:12:29;;;;;;;8.10;3.33;;;9.80;99.90;;;;;;5017708;28;20460;-74
2023/11/12 12:14:57;;;;;;;8.70;3.20;;;9.80;99.90;;;;;;5020421;28;20872;-73
2023/11/12 12:17:25;;;;;;;7.57;2.70;;;9.90;99.90;;;;;;5009714;28;20479;-73
2023/11/12 12:19:54;;;;;;;9.10;2.83;;;9.90;99.90;;;;;;5023766;28;20467;-73
2023/11/12 12:22:23;;;;;;;9.20;2.83;;;9.90;99.90;;;;;;5022354;28;20979;-70
2023/11/12 12:24:56;;;;;;;9.30;2.77;;;9.80;99.90;;;;;;5013801;28;20449;-70
2023/11/12 12:27:26;;;;;;;8.47;2.60;;;9.80;99.90;;;;;;5012898;28;20492;-71
2023/11/12 12:29:55;;;;;;;8.70;3.30;;;9.70;99.90;;;;;;5018288;28;20448;-71
2023/11/12 12:32:24;;;;;;;8.90;3.13;;;9.70;99.90;;;;;;5024735;28;20496;-72
2023/11/12 12:34:56;;;;;;;8.03;2.67;;;9.80;99.90;;;;;;5021451;28;20507;-70
2023/11/12 12:37:27;;;;;;;8.33;2.13;;;9.80;99.90;;;;;;5020403;28;20480;-71
2023/11/12 12:40:01;;;;;;;7.80;3.17;;;9.80;99.90;;;;;;5017836;28;20498;-73
2023/11/12 12:42:32;;;;;;;9.30;2.27;;;9.70;99.90;;;;;;5024316;28;20456;-71
2023/11/12 12:45:00;;;;;;;7.10;2.63;;;9.70;99.90;;;;;;5015567;28;20472;-71
2023/11/12 12:47:33;;;;;;;7.77;2.90;;;9.70;99.90;;;;;;5025664;28;20477;-70
2023/11/12 12:50:22;;;;;;;7.47;2.77;;;9.80;99.90;;;;;;5025764;28;20445;-71
2023/11/12 12:52:51;;;;;;;9.07;2.43;;;9.80;99.90;;;;;;5017460;28;20948;-70
2023/11/12 12:55:21;;;;;;;8.10;2.63;;;9.90;99.90;;;;;;5019451;28;20447;-70
2023/11/12 12:57:50;;;;;;;7.80;2.30;;;10.10;99.90;;;;;;5016907;28;20512;-70
2023/11/12 13:00:21;;;;;;;10.10;2.53;;;10.10;99.90;;;;;;5018697;28;20507;-70
2023/11/12 13:02:51;;;;;;;7.97;2.17;;;10.00;99.90;;;;;;5027858;28;20453;-72
2023/11/12 13:05:21;;;;;;;7.27;2.03;;;10.00;99.90;;;;;;5029883;28;20524;-71
2023/11/12 13:07:50;;;;;;;8.27;2.33;;;10.00;99.90;;;;;;5034716;28;20457;-68